KBRY/BRY METAR and TAF weather

Enter ICAO airport designator
Station Type Date Time Source
KBRY METAR 2019/04/21 22:35 UTC NOAA

KBRY 212235Z AUTO 04003KT 10SM CLR 21/02 A3009 RMK AO1


Station Type Date Time Source
KBRY Decoded METAR 2019/04/21 22:35 UTC NOAA

Station name not available
Apr 21, 2019 - 06:35 PM EDT / 2019.04.21 2235 UTC
Wind: from the NE (040 degrees) at 3 MPH (3 KT):0
Visibility: 10 mile(s):0
Sky conditions: clear
Temperature: 69 F (21 C)
Dew Point: 35 F (2 C)
Relative Humidity: 28%
Pressure (altimeter): 30.09 in. Hg (1018 hPa)
ob: KBRY 212235Z AUTO 04003KT 10SM CLR 21/02 A3009 RMK AO1
cycle: 22

Station Type Date Time Source
KBRY TAF UTC NOAA

Error!

Example: see airport list